sensor_id;sensor_type;location;lat;lon;timestamp;P1;durP1;ratioP1;P2;durP2;ratioP2
82926;SDS011;72788;40.218;44.486;2023-10-08T00:00:03;17.75;;;5.45;;
82926;SDS011;72788;40.218;44.486;2023-10-08T00:02:49;12.18;;;4.75;;
82926;SDS011;72788;40.218;44.486;2023-10-08T00:05:15;14.75;;;4.70;;
82926;SDS011;72788;40.218;44.486;2023-10-08T00:07:42;20.52;;;5.18;;
82926;SDS011;72788;40.218;44.486;2023-10-08T00:10:08;15.15;;;4.53;;
82926;SDS011;72788;40.218;44.486;2023-10-08T00:12:34;16.05;;;4.88;;
82926;SDS011;72788;40.218;44.486;2023-10-08T00:15:00;14.30;;;5.03;;
82926;SDS011;72788;40.218;44.486;2023-10-08T00:17:25;16.88;;;4.97;;
82926;SDS011;72788;40.218;44.486;2023-10-08T00:19:51;15.55;;;5.10;;
82926;SDS011;72788;40.218;44.486;2023-10-08T00:22:18;17.35;;;4.70;;
82926;SDS011;72788;40.218;44.486;2023-10-08T00:24:44;14.15;;;4.68;;
82926;SDS011;72788;40.218;44.486;2023-10-08T00:27:23;16.48;;;4.28;;
82926;SDS011;72788;40.218;44.486;2023-10-08T00:29:48;14.50;;;4.60;;
82926;SDS011;72788;40.218;44.486;2023-10-08T00:32:14;14.65;;;4.65;;
82926;SDS011;72788;40.218;44.486;2023-10-08T00:34:41;12.43;;;3.95;;
82926;SDS011;72788;40.218;44.486;2023-10-08T00:37:08;16.13;;;4.53;;
82926;SDS011;72788;40.218;44.486;2023-10-08T00:39:35;12.85;;;4.38;;
82926;SDS011;72788;40.218;44.486;2023-10-08T00:42:03;14.80;;;4.78;;
82926;SDS011;72788;40.218;44.486;2023-10-08T00:44:29;15.45;;;4.75;;
82926;SDS011;72788;40.218;44.486;2023-10-08T00:46:59;13.48;;;4.28;;
82926;SDS011;72788;40.218;44.486;2023-10-08T00:49:26;13.93;;;3.92;;
82926;SDS011;72788;40.218;44.486;2023-10-08T00:52:14;13.57;;;4.30;;
82926;SDS011;72788;40.218;44.486;2023-10-08T00:54:41;13.43;;;5.18;;
82926;SDS011;72788;40.218;44.486;2023-10-08T00:57:17;12.63;;;4.07;;
82926;SDS011;72788;40.218;44.486;2023-10-08T00:59:47;16.13;;;4.45;;
82926;SDS011;72788;40.218;44.486;2023-10-08T01:02:22;13.85;;;4.47;;
82926;SDS011;72788;40.218;44.486;2023-10-08T01:04:51;12.65;;;4.72;;
82926;SDS011;72788;40.218;44.486;2023-10-08T01:07:19;19.38;;;5.03;;
82926;SDS011;72788;40.218;44.486;2023-10-08T01:09:45;14.40;;;4.18;;
82926;SDS011;72788;40.218;44.486;2023-10-08T01:12:23;16.67;;;5.20;;
82926;SDS011;72788;40.218;44.486;2023-10-08T01:14:58;14.43;;;4.88;;
82926;SDS011;72788;40.218;44.486;2023-10-08T01:17:48;12.98;;;3.85;;
82926;SDS011;72788;40.218;44.486;2023-10-08T01:20:23;14.77;;;4.82;;
82926;SDS011;72788;40.218;44.486;2023-10-08T01:23:00;14.30;;;4.28;;
82926;SDS011;72788;40.218;44.486;2023-10-08T01:25:44;15.30;;;4.03;;
82926;SDS011;72788;40.218;44.486;2023-10-08T01:28:17;14.32;;;4.80;;
82926;SDS011;72788;40.218;44.486;2023-10-08T01:30:51;14.60;;;5.03;;
82926;SDS011;72788;40.218;44.486;2023-10-08T01:33:22;15.68;;;4.45;;
82926;SDS011;72788;40.218;44.486;2023-10-08T01:35:52;14.85;;;3.97;;
82926;SDS011;72788;40.218;44.486;2023-10-08T01:38:17;14.63;;;4.13;;
82926;SDS011;72788;40.218;44.486;2023-10-08T01:40:48;11.57;;;4.03;;
82926;SDS011;72788;40.218;44.486;2023-10-08T01:43:17;15.32;;;3.85;;
82926;SDS011;72788;40.218;44.486;2023-10-08T01:45:43;17.42;;;5.60;;
82926;SDS011;72788;40.218;44.486;2023-10-08T01:48:13;14.88;;;3.80;;
82926;SDS011;72788;40.218;44.486;2023-10-08T01:50:40;16.33;;;5.07;;
82926;SDS011;72788;40.218;44.486;2023-10-08T01:53:06;13.15;;;4.25;;
82926;SDS011;72788;40.218;44.486;2023-10-08T01:55:35;14.63;;;4.15;;
82926;SDS011;72788;40.218;44.486;2023-10-08T01:58:14;12.10;;;3.60;;
82926;SDS011;72788;40.218;44.486;2023-10-08T02:00:43;13.07;;;3.60;;
82926;SDS011;72788;40.218;44.486;2023-10-08T02:03:11;14.43;;;3.90;;
82926;SDS011;72788;40.218;44.486;2023-10-08T02:05:38;13.85;;;4.75;;
82926;SDS011;72788;40.218;44.486;2023-10-08T02:08:07;10.32;;;4.05;;
82926;SDS011;72788;40.218;44.486;2023-10-08T02:10:39;13.68;;;3.88;;
82926;SDS011;72788;40.218;44.486;2023-10-08T02:13:06;11.63;;;3.80;;
82926;SDS011;72788;40.218;44.486;2023-10-08T02:15:34;10.10;;;3.47;;
82926;SDS011;72788;40.218;44.486;2023-10-08T02:18:01;12.57;;;3.80;;
82926;SDS011;72788;40.218;44.486;2023-10-08T02:20:28;15.13;;;4.15;;
82926;SDS011;72788;40.218;44.486;2023-10-08T02:22:54;11.05;;;3.45;;
82926;SDS011;72788;40.218;44.486;2023-10-08T02:25:20;13.85;;;4.30;;
82926;SDS011;72788;40.218;44.486;2023-10-08T02:27:45;15.15;;;4.82;;
82926;SDS011;72788;40.218;44.486;2023-10-08T02:30:13;12.18;;;3.85;;
82926;SDS011;72788;40.218;44.486;2023-10-08T02:32:39;12.88;;;4.40;;
82926;SDS011;72788;40.218;44.486;2023-10-08T02:35:08;12.75;;;4.60;;
82926;SDS011;72788;40.218;44.486;2023-10-08T02:37:39;12.15;;;3.80;;
82926;SDS011;72788;40.218;44.486;2023-10-08T02:40:08;13.48;;;4.53;;
82926;SDS011;72788;40.218;44.486;2023-10-08T02:42:56;14.07;;;4.60;;
82926;SDS011;72788;40.218;44.486;2023-10-08T02:45:26;15.20;;;4.50;;
82926;SDS011;72788;40.218;44.486;2023-10-08T02:47:52;16.80;;;4.20;;
82926;SDS011;72788;40.218;44.486;2023-10-08T02:50:19;16.20;;;5.10;;
82926;SDS011;72788;40.218;44.486;2023-10-08T02:52:47;15.40;;;3.92;;
82926;SDS011;72788;40.218;44.486;2023-10-08T02:55:15;15.75;;;4.30;;
82926;SDS011;72788;40.218;44.486;2023-10-08T02:58:02;14.13;;;4.43;;
82926;SDS011;72788;40.218;44.486;2023-10-08T03:00:28;24.75;;;4.40;;
82926;SDS011;72788;40.218;44.486;2023-10-08T03:02:57;18.50;;;4.43;;
82926;SDS011;72788;40.218;44.486;2023-10-08T03:05:28;14.15;;;4.97;;
82926;SDS011;72788;40.218;44.486;2023-10-08T03:08:01;14.75;;;4.07;;
82926;SDS011;72788;40.218;44.486;2023-10-08T03:10:37;12.30;;;4.47;;
82926;SDS011;72788;40.218;44.486;2023-10-08T03:13:03;21.13;;;5.80;;
82926;SDS011;72788;40.218;44.486;2023-10-08T03:15:30;16.60;;;5.95;;
82926;SDS011;72788;40.218;44.486;2023-10-08T03:18:03;16.13;;;4.82;;
82926;SDS011;72788;40.218;44.486;2023-10-08T03:20:39;19.55;;;4.93;;
82926;SDS011;72788;40.218;44.486;2023-10-08T03:23:13;15.20;;;6.13;;
82926;SDS011;72788;40.218;44.486;2023-10-08T03:25:55;15.13;;;4.97;;
82926;SDS011;72788;40.218;44.486;2023-10-08T03:28:36;18.42;;;5.38;;
82926;SDS011;72788;40.218;44.486;2023-10-08T03:31:02;16.63;;;5.63;;
82926;SDS011;72788;40.218;44.486;2023-10-08T03:33:33;14.13;;;5.07;;
82926;SDS011;72788;40.218;44.486;2023-10-08T03:36:02;15.43;;;4.53;;
82926;SDS011;72788;40.218;44.486;2023-10-08T03:38:49;18.92;;;5.10;;
82926;SDS011;72788;40.218;44.486;2023-10-08T03:41:16;14.75;;;4.90;;
82926;SDS011;72788;40.218;44.486;2023-10-08T03:43:43;16.90;;;4.85;;
82926;SDS011;72788;40.218;44.486;2023-10-08T03:46:23;21.58;;;5.70;;
82926;SDS011;72788;40.218;44.486;2023-10-08T03:48:49;16.27;;;5.30;;
82926;SDS011;72788;40.218;44.486;2023-10-08T03:51:18;14.07;;;4.95;;
82926;SDS011;72788;40.218;44.486;2023-10-08T03:53:47;15.38;;;5.18;;
82926;SDS011;72788;40.218;44.486;2023-10-08T03:56:40;20.17;;;5.38;;
82926;SDS011;72788;40.218;44.486;2023-10-08T03:59:13;19.08;;;5.55;;
82926;SDS011;72788;40.218;44.486;2023-10-08T04:02:04;16.05;;;4.85;;
82926;SDS011;72788;40.218;44.486;2023-10-08T04:04:40;19.33;;;6.00;;
82926;SDS011;72788;40.218;44.486;2023-10-08T04:07:17;17.15;;;6.38;;
82926;SDS011;72788;40.218;44.486;2023-10-08T04:09:50;19.23;;;5.70;;
82926;SDS011;72788;40.218;44.486;2023-10-08T04:12:30;21.45;;;5.28;;
82926;SDS011;72788;40.218;44.486;2023-10-08T04:15:00;17.05;;;4.35;;
82926;SDS011;72788;40.218;44.486;2023-10-08T04:17:26;15.48;;;5.75;;
82926;SDS011;72788;40.218;44.486;2023-10-08T04:19:52;17.38;;;5.20;;
82926;SDS011;72788;40.218;44.486;2023-10-08T04:22:18;15.30;;;5.35;;
82926;SDS011;72788;40.218;44.486;2023-10-08T04:24:44;11.88;;;4.55;;
82926;SDS011;72788;40.218;44.486;2023-10-08T04:27:09;12.95;;;4.47;;
82926;SDS011;72788;40.218;44.486;2023-10-08T04:29:35;15.88;;;5.00;;
82926;SDS011;72788;40.218;44.486;2023-10-08T04:32:07;17.38;;;5.03;;
82926;SDS011;72788;40.218;44.486;2023-10-08T04:34:33;15.98;;;5.30;;
82926;SDS011;72788;40.218;44.486;2023-10-08T04:36:59;22.05;;;5.30;;
82926;SDS011;72788;40.218;44.486;2023-10-08T04:39:29;15.07;;;5.47;;
82926;SDS011;72788;40.218;44.486;2023-10-08T04:42:01;17.88;;;5.35;;
82926;SDS011;72788;40.218;44.486;2023-10-08T04:47:03;17.08;;;5.72;;
82926;SDS011;72788;40.218;44.486;2023-10-08T04:49:30;16.85;;;5.28;;
82926;SDS011;72788;40.218;44.486;2023-10-08T04:51:59;17.65;;;6.30;;
82926;SDS011;72788;40.218;44.486;2023-10-08T04:54:26;19.75;;;7.00;;
82926;SDS011;72788;40.218;44.486;2023-10-08T04:56:59;19.33;;;6.82;;
82926;SDS011;72788;40.218;44.486;2023-10-08T04:59:27;18.63;;;7.20;;
82926;SDS011;72788;40.218;44.486;2023-10-08T05:02:04;20.17;;;6.57;;
82926;SDS011;72788;40.218;44.486;2023-10-08T05:04:52;17.30;;;6.20;;
82926;SDS011;72788;40.218;44.486;2023-10-08T05:07:20;15.77;;;5.72;;
82926;SDS011;72788;40.218;44.486;2023-10-08T05:10:06;18.90;;;6.88;;
82926;SDS011;72788;40.218;44.486;2023-10-08T05:12:32;19.77;;;5.50;;
82926;SDS011;72788;40.218;44.486;2023-10-08T05:15:16;15.80;;;5.00;;
82926;SDS011;72788;40.218;44.486;2023-10-08T05:17:42;18.20;;;5.68;;
82926;SDS011;72788;40.218;44.486;2023-10-08T05:20:32;15.07;;;5.35;;
82926;SDS011;72788;40.218;44.486;2023-10-08T05:23:16;15.82;;;6.13;;
82926;SDS011;72788;40.218;44.486;2023-10-08T05:26:05;17.08;;;5.35;;
82926;SDS011;72788;40.218;44.486;2023-10-08T05:28:32;15.05;;;5.35;;
82926;SDS011;72788;40.218;44.486;2023-10-08T05:31:07;15.55;;;4.50;;
82926;SDS011;72788;40.218;44.486;2023-10-08T05:33:56;13.18;;;4.05;;
82926;SDS011;72788;40.218;44.486;2023-10-08T05:36:41;12.73;;;4.82;;
82926;SDS011;72788;40.218;44.486;2023-10-08T05:39:36;10.73;;;3.72;;
82926;SDS011;72788;40.218;44.486;2023-10-08T05:42:19;13.30;;;4.10;;
82926;SDS011;72788;40.218;44.486;2023-10-08T05:47:33;12.75;;;4.07;;
82926;SDS011;72788;40.218;44.486;2023-10-08T05:49:59;13.98;;;3.80;;
82926;SDS011;72788;40.218;44.486;2023-10-08T05:52:44;12.18;;;3.30;;
82926;SDS011;72788;40.218;44.486;2023-10-08T05:55:23;12.43;;;4.68;;
82926;SDS011;72788;40.218;44.486;2023-10-08T05:57:58;10.65;;;3.47;;
82926;SDS011;72788;40.218;44.486;2023-10-08T06:00:44;12.38;;;3.05;;
82926;SDS011;72788;40.218;44.486;2023-10-08T06:05:59;11.95;;;3.55;;
82926;SDS011;72788;40.218;44.486;2023-10-08T06:08:40;12.25;;;4.05;;
82926;SDS011;72788;40.218;44.486;2023-10-08T06:11:25;11.40;;;3.83;;
82926;SDS011;72788;40.218;44.486;2023-10-08T06:14:08;10.10;;;3.45;;
82926;SDS011;72788;40.218;44.486;2023-10-08T06:17:00;13.07;;;3.70;;
82926;SDS011;72788;40.218;44.486;2023-10-08T06:19:44;8.98;;;3.22;;
82926;SDS011;72788;40.218;44.486;2023-10-08T06:22:10;11.93;;;3.40;;
82926;SDS011;72788;40.218;44.486;2023-10-08T06:24:35;9.88;;;2.65;;
82926;SDS011;72788;40.218;44.486;2023-10-08T06:27:04;17.20;;;4.03;;
82926;SDS011;72788;40.218;44.486;2023-10-08T06:29:32;15.70;;;3.80;;
82926;SDS011;72788;40.218;44.486;2023-10-08T06:31:58;17.65;;;4.28;;
82926;SDS011;72788;40.218;44.486;2023-10-08T06:34:27;22.80;;;4.07;;
82926;SDS011;72788;40.218;44.486;2023-10-08T06:36:55;9.00;;;2.65;;
82926;SDS011;72788;40.218;44.486;2023-10-08T06:39:25;17.55;;;3.40;;
82926;SDS011;72788;40.218;44.486;2023-10-08T06:41:58;9.02;;;2.53;;
82926;SDS011;72788;40.218;44.486;2023-10-08T06:44:25;10.68;;;2.50;;
82926;SDS011;72788;40.218;44.486;2023-10-08T06:46:53;8.45;;;2.72;;
82926;SDS011;72788;40.218;44.486;2023-10-08T06:49:20;11.18;;;2.47;;
82926;SDS011;72788;40.218;44.486;2023-10-08T06:51:49;11.32;;;3.05;;
82926;SDS011;72788;40.218;44.486;2023-10-08T06:54:16;13.23;;;3.65;;
82926;SDS011;72788;40.218;44.486;2023-10-08T06:56:46;17.20;;;3.35;;
82926;SDS011;72788;40.218;44.486;2023-10-08T06:59:17;11.07;;;3.15;;
82926;SDS011;72788;40.218;44.486;2023-10-08T07:01:43;12.82;;;3.13;;
82926;SDS011;72788;40.218;44.486;2023-10-08T07:04:12;8.45;;;2.67;;
82926;SDS011;72788;40.218;44.486;2023-10-08T07:06:39;9.60;;;2.88;;
82926;SDS011;72788;40.218;44.486;2023-10-08T07:09:06;11.43;;;2.45;;
82926;SDS011;72788;40.218;44.486;2023-10-08T07:11:47;10.05;;;2.72;;
82926;SDS011;72788;40.218;44.486;2023-10-08T07:16:57;8.02;;;3.00;;
82926;SDS011;72788;40.218;44.486;2023-10-08T07:19:28;9.10;;;2.22;;
82926;SDS011;72788;40.218;44.486;2023-10-08T07:22:07;13.15;;;3.38;;
82926;SDS011;72788;40.218;44.486;2023-10-08T07:24:47;8.63;;;2.40;;
82926;SDS011;72788;40.218;44.486;2023-10-08T07:27:16;11.60;;;3.28;;
82926;SDS011;72788;40.218;44.486;2023-10-08T07:29:46;9.57;;;2.75;;
82926;SDS011;72788;40.218;44.486;2023-10-08T07:32:13;9.63;;;2.88;;
82926;SDS011;72788;40.218;44.486;2023-10-08T07:34:43;11.95;;;2.97;;
82926;SDS011;72788;40.218;44.486;2023-10-08T07:37:09;11.15;;;3.00;;
82926;SDS011;72788;40.218;44.486;2023-10-08T07:39:36;8.90;;;2.38;;
82926;SDS011;72788;40.218;44.486;2023-10-08T07:42:10;11.35;;;3.38;;
82926;SDS011;72788;40.218;44.486;2023-10-08T07:44:36;11.60;;;3.25;;
82926;SDS011;72788;40.218;44.486;2023-10-08T07:47:04;9.30;;;3.40;;
82926;SDS011;72788;40.218;44.486;2023-10-08T07:49:33;9.75;;;3.22;;
82926;SDS011;72788;40.218;44.486;2023-10-08T07:52:01;16.85;;;3.65;;
82926;SDS011;72788;40.218;44.486;2023-10-08T07:54:27;11.60;;;3.17;;
82926;SDS011;72788;40.218;44.486;2023-10-08T07:56:53;10.68;;;2.88;;
82926;SDS011;72788;40.218;44.486;2023-10-08T07:59:37;11.38;;;3.42;;
82926;SDS011;72788;40.218;44.486;2023-10-08T08:02:11;10.73;;;3.10;;
82926;SDS011;72788;40.218;44.486;2023-10-08T08:04:39;9.38;;;2.92;;
82926;SDS011;72788;40.218;44.486;2023-10-08T08:07:06;11.75;;;3.05;;
82926;SDS011;72788;40.218;44.486;2023-10-08T08:09:32;12.25;;;3.15;;
82926;SDS011;72788;40.218;44.486;2023-10-08T08:12:06;10.48;;;3.03;;
82926;SDS011;72788;40.218;44.486;2023-10-08T08:14:35;16.15;;;3.30;;
82926;SDS011;72788;40.218;44.486;2023-10-08T08:17:04;12.02;;;3.53;;
82926;SDS011;72788;40.218;44.486;2023-10-08T08:19:39;11.00;;;3.50;;
82926;SDS011;72788;40.218;44.486;2023-10-08T08:22:05;10.85;;;3.42;;
82926;SDS011;72788;40.218;44.486;2023-10-08T08:24:31;12.95;;;4.28;;
82926;SDS011;72788;40.218;44.486;2023-10-08T08:27:01;14.10;;;4.13;;
82926;SDS011;72788;40.218;44.486;2023-10-08T08:29:34;10.80;;;3.05;;
82926;SDS011;72788;40.218;44.486;2023-10-08T08:32:09;13.63;;;3.97;;
82926;SDS011;72788;40.218;44.486;2023-10-08T08:34:41;11.77;;;3.85;;
82926;SDS011;72788;40.218;44.486;2023-10-08T08:37:09;14.73;;;3.25;;
82926;SDS011;72788;40.218;44.486;2023-10-08T08:39:38;13.20;;;3.72;;
82926;SDS011;72788;40.218;44.486;2023-10-08T08:42:06;12.85;;;3.80;;
82926;SDS011;72788;40.218;44.486;2023-10-08T08:44:35;12.18;;;3.70;;
82926;SDS011;72788;40.218;44.486;2023-10-08T08:47:14;14.38;;;4.32;;
82926;SDS011;72788;40.218;44.486;2023-10-08T08:49:43;12.52;;;4.13;;
82926;SDS011;72788;40.218;44.486;2023-10-08T08:52:10;12.38;;;3.55;;
82926;SDS011;72788;40.218;44.486;2023-10-08T08:54:37;14.13;;;3.83;;
82926;SDS011;72788;40.218;44.486;2023-10-08T08:57:04;12.20;;;4.32;;
82926;SDS011;72788;40.218;44.486;2023-10-08T08:59:33;13.80;;;4.40;;
82926;SDS011;72788;40.218;44.486;2023-10-08T09:02:02;15.32;;;5.70;;
82926;SDS011;72788;40.218;44.486;2023-10-08T09:04:32;14.75;;;5.30;;
82926;SDS011;72788;40.218;44.486;2023-10-08T09:07:01;12.00;;;4.05;;
82926;SDS011;72788;40.218;44.486;2023-10-08T09:09:33;13.00;;;4.70;;
82926;SDS011;72788;40.218;44.486;2023-10-08T09:12:04;16.77;;;5.05;;
82926;SDS011;72788;40.218;44.486;2023-10-08T09:14:33;12.05;;;4.18;;
82926;SDS011;72788;40.218;44.486;2023-10-08T09:17:02;16.63;;;5.60;;
82926;SDS011;72788;40.218;44.486;2023-10-08T09:19:35;15.82;;;5.45;;
82926;SDS011;72788;40.218;44.486;2023-10-08T09:22:08;11.82;;;4.22;;
82926;SDS011;72788;40.218;44.486;2023-10-08T09:24:38;11.73;;;3.88;;
82926;SDS011;72788;40.218;44.486;2023-10-08T09:27:08;14.43;;;4.40;;
82926;SDS011;72788;40.218;44.486;2023-10-08T09:29:39;13.90;;;4.20;;
82926;SDS011;72788;40.218;44.486;2023-10-08T09:32:08;14.23;;;4.03;;
82926;SDS011;72788;40.218;44.486;2023-10-08T09:34:35;12.30;;;4.43;;
82926;SDS011;72788;40.218;44.486;2023-10-08T09:37:01;13.90;;;4.10;;
82926;SDS011;72788;40.218;44.486;2023-10-08T09:39:28;11.15;;;4.25;;
82926;SDS011;72788;40.218;44.486;2023-10-08T09:41:59;12.82;;;4.10;;
82926;SDS011;72788;40.218;44.486;2023-10-08T09:44:28;13.20;;;5.00;;
82926;SDS011;72788;40.218;44.486;2023-10-08T09:47:03;20.33;;;6.60;;
82926;SDS011;72788;40.218;44.486;2023-10-08T09:49:44;12.35;;;4.43;;
82926;SDS011;72788;40.218;44.486;2023-10-08T09:52:16;14.05;;;5.13;;
82926;SDS011;72788;40.218;44.486;2023-10-08T09:54:48;14.13;;;4.40;;
82926;SDS011;72788;40.218;44.486;2023-10-08T09:57:20;14.60;;;4.80;;
82926;SDS011;72788;40.218;44.486;2023-10-08T09:59:50;15.57;;;4.90;;
82926;SDS011;72788;40.218;44.486;2023-10-08T10:02:17;23.83;;;5.10;;
82926;SDS011;72788;40.218;44.486;2023-10-08T10:04:48;12.73;;;4.72;;
82926;SDS011;72788;40.218;44.486;2023-10-08T10:07:17;12.30;;;4.50;;
82926;SDS011;72788;40.218;44.486;2023-10-08T10:09:44;15.55;;;5.00;;
82926;SDS011;72788;40.218;44.486;2023-10-08T10:12:18;15.82;;;4.57;;
82926;SDS011;72788;40.218;44.486;2023-10-08T10:14:52;14.18;;;4.68;;
82926;SDS011;72788;40.218;44.486;2023-10-08T10:17:22;15.65;;;4.38;;
82926;SDS011;72788;40.218;44.486;2023-10-08T10:22:28;22.90;;;5.20;;
82926;SDS011;72788;40.218;44.486;2023-10-08T10:24:56;12.50;;;4.95;;
82926;SDS011;72788;40.218;44.486;2023-10-08T10:27:23;13.05;;;5.13;;
82926;SDS011;72788;40.218;44.486;2023-10-08T10:29:49;15.07;;;4.82;;
82926;SDS011;72788;40.218;44.486;2023-10-08T10:32:15;13.80;;;4.57;;
82926;SDS011;72788;40.218;44.486;2023-10-08T10:34:42;12.13;;;4.65;;
82926;SDS011;72788;40.218;44.486;2023-10-08T10:37:08;15.93;;;4.25;;
82926;SDS011;72788;40.218;44.486;2023-10-08T10:39:50;11.52;;;4.10;;
82926;SDS011;72788;40.218;44.486;2023-10-08T10:42:26;13.35;;;4.18;;
82926;SDS011;72788;40.218;44.486;2023-10-08T10:44:54;14.68;;;4.55;;
82926;SDS011;72788;40.218;44.486;2023-10-08T10:47:21;12.20;;;4.03;;
82926;SDS011;72788;40.218;44.486;2023-10-08T10:49:48;13.60;;;4.72;;
82926;SDS011;72788;40.218;44.486;2023-10-08T10:55:05;11.75;;;4.80;;
82926;SDS011;72788;40.218;44.486;2023-10-08T10:57:53;14.80;;;4.65;;
82926;SDS011;72788;40.218;44.486;2023-10-08T11:00:21;12.98;;;3.72;;
82926;SDS011;72788;40.218;44.486;2023-10-08T11:03:14;12.65;;;3.70;;
82926;SDS011;72788;40.218;44.486;2023-10-08T11:05:43;14.20;;;4.20;;
82926;SDS011;72788;40.218;44.486;2023-10-08T11:08:14;12.27;;;3.85;;
82926;SDS011;72788;40.218;44.486;2023-10-08T11:10:43;10.95;;;3.95;;
82926;SDS011;72788;40.218;44.486;2023-10-08T11:13:23;12.80;;;3.90;;
82926;SDS011;72788;40.218;44.486;2023-10-08T11:15:53;11.07;;;3.60;;
82926;SDS011;72788;40.218;44.486;2023-10-08T11:18:23;12.98;;;3.83;;
82926;SDS011;72788;40.218;44.486;2023-10-08T11:20:52;10.10;;;3.42;;
82926;SDS011;72788;40.218;44.486;2023-10-08T11:23:56;9.02;;;3.13;;
82926;SDS011;72788;40.218;44.486;2023-10-08T11:26:24;14.13;;;3.67;;
82926;SDS011;72788;40.218;44.486;2023-10-08T11:28:57;12.68;;;4.00;;
82926;SDS011;72788;40.218;44.486;2023-10-08T11:31:26;9.30;;;2.78;;
82926;SDS011;72788;40.218;44.486;2023-10-08T11:33:58;10.02;;;3.70;;
82926;SDS011;72788;40.218;44.486;2023-10-08T11:36:24;10.88;;;3.80;;
82926;SDS011;72788;40.218;44.486;2023-10-08T11:38:53;10.85;;;3.60;;
82926;SDS011;72788;40.218;44.486;2023-10-08T11:41:26;11.40;;;4.20;;
82926;SDS011;72788;40.218;44.486;2023-10-08T11:43:54;10.85;;;3.90;;
82926;SDS011;72788;40.218;44.486;2023-10-08T11:48:58;13.45;;;4.18;;
82926;SDS011;72788;40.218;44.486;2023-10-08T11:51:33;12.35;;;3.60;;
82926;SDS011;72788;40.218;44.486;2023-10-08T11:54:00;13.00;;;4.35;;
82926;SDS011;72788;40.218;44.486;2023-10-08T11:56:30;13.13;;;4.05;;
82926;SDS011;72788;40.218;44.486;2023-10-08T11:58:57;13.93;;;4.22;;
82926;SDS011;72788;40.218;44.486;2023-10-08T12:01:26;22.05;;;12.40;;
82926;SDS011;72788;40.218;44.486;2023-10-08T12:03:52;14.63;;;5.60;;
82926;SDS011;72788;40.218;44.486;2023-10-08T12:06:25;10.35;;;4.47;;
82926;SDS011;72788;40.218;44.486;2023-10-08T12:08:54;16.55;;;4.57;;
82926;SDS011;72788;40.218;44.486;2023-10-08T12:11:24;14.20;;;4.53;;
82926;SDS011;72788;40.218;44.486;2023-10-08T12:13:56;12.20;;;4.18;;
82926;SDS011;72788;40.218;44.486;2023-10-08T12:16:24;11.50;;;4.90;;
82926;SDS011;72788;40.218;44.486;2023-10-08T12:18:54;14.18;;;4.10;;
82926;SDS011;72788;40.218;44.486;2023-10-08T12:21:27;12.15;;;4.97;;
82926;SDS011;72788;40.218;44.486;2023-10-08T12:23:56;12.30;;;3.92;;
82926;SDS011;72788;40.218;44.486;2023-10-08T12:26:23;10.80;;;3.53;;
82926;SDS011;72788;40.218;44.486;2023-10-08T12:28:49;9.90;;;4.13;;
82926;SDS011;72788;40.218;44.486;2023-10-08T12:31:15;13.15;;;3.55;;
82926;SDS011;72788;40.218;44.486;2023-10-08T12:33:41;11.32;;;3.53;;
82926;SDS011;72788;40.218;44.486;2023-10-08T12:36:08;9.00;;;3.67;;
82926;SDS011;72788;40.218;44.486;2023-10-08T12:38:41;10.85;;;3.10;;
82926;SDS011;72788;40.218;44.486;2023-10-08T12:41:08;11.82;;;4.10;;
82926;SDS011;72788;40.218;44.486;2023-10-08T12:43:37;10.63;;;3.35;;
82926;SDS011;72788;40.218;44.486;2023-10-08T12:46:17;11.10;;;3.38;;
82926;SDS011;72788;40.218;44.486;2023-10-08T12:48:47;10.48;;;3.40;;
82926;SDS011;72788;40.218;44.486;2023-10-08T12:51:17;10.45;;;3.38;;
82926;SDS011;72788;40.218;44.486;2023-10-08T12:53:43;11.20;;;4.15;;
82926;SDS011;72788;40.218;44.486;2023-10-08T12:56:16;12.35;;;4.93;;
82926;SDS011;72788;40.218;44.486;2023-10-08T12:58:47;9.60;;;3.90;;
82926;SDS011;72788;40.218;44.486;2023-10-08T13:01:18;12.38;;;4.50;;
82926;SDS011;72788;40.218;44.486;2023-10-08T13:03:45;13.70;;;4.60;;
82926;SDS011;72788;40.218;44.486;2023-10-08T13:06:15;9.90;;;4.10;;
82926;SDS011;72788;40.218;44.486;2023-10-08T13:08:54;12.43;;;4.47;;
82926;SDS011;72788;40.218;44.486;2023-10-08T13:11:20;10.98;;;3.60;;
82926;SDS011;72788;40.218;44.486;2023-10-08T13:13:54;13.75;;;3.90;;
82926;SDS011;72788;40.218;44.486;2023-10-08T13:18:56;13.80;;;3.75;;
82926;SDS011;72788;40.218;44.486;2023-10-08T13:21:26;12.68;;;3.97;;
82926;SDS011;72788;40.218;44.486;2023-10-08T13:23:54;13.13;;;4.25;;
82926;SDS011;72788;40.218;44.486;2023-10-08T13:26:25;9.60;;;3.50;;
82926;SDS011;72788;40.218;44.486;2023-10-08T13:29:02;14.40;;;4.20;;
82926;SDS011;72788;40.218;44.486;2023-10-08T13:31:28;10.40;;;3.40;;
82926;SDS011;72788;40.218;44.486;2023-10-08T13:33:54;12.35;;;3.70;;
82926;SDS011;72788;40.218;44.486;2023-10-08T13:36:22;13.48;;;3.58;;
82926;SDS011;72788;40.218;44.486;2023-10-08T13:38:49;15.88;;;4.20;;
82926;SDS011;72788;40.218;44.486;2023-10-08T13:41:15;13.27;;;4.03;;
82926;SDS011;72788;40.218;44.486;2023-10-08T13:43:45;10.85;;;3.88;;
82926;SDS011;72788;40.218;44.486;2023-10-08T13:46:15;11.30;;;3.75;;
82926;SDS011;72788;40.218;44.486;2023-10-08T13:48:43;12.70;;;4.15;;
82926;SDS011;72788;40.218;44.486;2023-10-08T13:51:20;10.68;;;3.78;;
82926;SDS011;72788;40.218;44.486;2023-10-08T13:53:58;10.50;;;3.97;;
82926;SDS011;72788;40.218;44.486;2023-10-08T13:56:28;10.73;;;3.53;;
82926;SDS011;72788;40.218;44.486;2023-10-08T13:58:56;10.88;;;3.88;;
82926;SDS011;72788;40.218;44.486;2023-10-08T14:01:37;10.93;;;3.88;;
82926;SDS011;72788;40.218;44.486;2023-10-08T14:04:05;14.98;;;4.28;;
82926;SDS011;72788;40.218;44.486;2023-10-08T14:06:36;10.93;;;3.70;;
82926;SDS011;72788;40.218;44.486;2023-10-08T14:09:05;17.98;;;4.38;;
82926;SDS011;72788;40.218;44.486;2023-10-08T14:11:37;13.00;;;3.90;;
82926;SDS011;72788;40.218;44.486;2023-10-08T14:14:03;13.60;;;4.30;;
82926;SDS011;72788;40.218;44.486;2023-10-08T14:16:38;11.43;;;4.85;;
82926;SDS011;72788;40.218;44.486;2023-10-08T14:19:08;15.30;;;5.32;;
82926;SDS011;72788;40.218;44.486;2023-10-08T14:21:38;16.35;;;5.35;;
82926;SDS011;72788;40.218;44.486;2023-10-08T14:24:15;18.98;;;7.57;;
82926;SDS011;72788;40.218;44.486;2023-10-08T14:26:43;19.52;;;8.82;;
82926;SDS011;72788;40.218;44.486;2023-10-08T14:29:09;17.80;;;5.72;;
82926;SDS011;72788;40.218;44.486;2023-10-08T14:31:40;15.05;;;5.03;;
82926;SDS011;72788;40.218;44.486;2023-10-08T14:34:09;16.17;;;5.07;;
82926;SDS011;72788;40.218;44.486;2023-10-08T14:36:41;14.05;;;4.97;;
82926;SDS011;72788;40.218;44.486;2023-10-08T14:39:25;16.35;;;5.80;;
82926;SDS011;72788;40.218;44.486;2023-10-08T14:42:09;24.15;;;8.13;;
82926;SDS011;72788;40.218;44.486;2023-10-08T14:44:53;18.88;;;6.38;;
82926;SDS011;72788;40.218;44.486;2023-10-08T14:47:19;16.45;;;6.47;;
82926;SDS011;72788;40.218;44.486;2023-10-08T14:49:45;18.23;;;7.07;;
82926;SDS011;72788;40.218;44.486;2023-10-08T14:52:11;21.27;;;7.88;;
82926;SDS011;72788;40.218;44.486;2023-10-08T14:54:37;18.30;;;6.30;;
82926;SDS011;72788;40.218;44.486;2023-10-08T14:57:03;16.48;;;5.43;;
82926;SDS011;72788;40.218;44.486;2023-10-08T14:59:31;18.73;;;5.93;;
82926;SDS011;72788;40.218;44.486;2023-10-08T15:01:57;20.95;;;6.10;;
82926;SDS011;72788;40.218;44.486;2023-10-08T15:04:26;16.80;;;5.57;;
82926;SDS011;72788;40.218;44.486;2023-10-08T15:06:54;19.52;;;6.10;;